Time;durP1;ratioP1;P1;durP2;ratioP2;P2;SDS_P1;SDS_P2;PMS_P1;PMS_P2;Temp;Humidity;BMP_temperature;BMP_pressure;BME280_temperature;BME280_humidity;BME280_pressure;Samples;Min_cycle;Max_cycle;Signal;HPM_P1;HPM_P2
2023/10/25 00:00:32;;;;;;;7.40;2.83;;;9.00;99.90;;;;;;5058896;28;20017;-75
2023/10/25 00:02:58;;;;;;;8.37;3.10;;;8.90;99.90;;;;;;5070666;28;20027;-75
2023/10/25 00:05:23;;;;;;;4.93;3.27;;;9.00;99.90;;;;;;5067439;28;20028;-76
2023/10/25 00:07:49;;;;;;;4.83;3.03;;;9.10;99.90;;;;;;5086005;28;20024;-75
2023/10/25 00:10:18;;;;;;;9.00;3.17;;;9.00;99.90;;;;;;5069815;28;20033;-75
2023/10/25 00:12:51;;;;;;;5.63;2.97;;;8.90;99.90;;;;;;5066862;28;20001;-75
2023/10/25 00:15:24;;;;;;;8.03;2.97;;;9.00;99.90;;;;;;5082233;28;20017;-75
2023/10/25 00:17:49;;;;;;;6.27;2.30;;;9.00;99.90;;;;;;5062967;28;20036;-75
2023/10/25 00:20:18;;;;;;;8.87;3.03;;;8.90;99.90;;;;;;5055393;28;20096;-75
2023/10/25 00:22:46;;;;;;;7.77;3.23;;;8.90;99.90;;;;;;5052677;28;20013;-75
2023/10/25 00:25:11;;;;;;;6.53;3.53;;;8.80;99.90;;;;;;5053712;28;20025;-75
2023/10/25 00:27:37;;;;;;;4.00;2.10;;;9.10;99.90;;;;;;5051151;28;20028;-76
2023/10/25 00:30:06;;;;;;;4.33;2.07;;;9.00;99.90;;;;;;5068704;28;20032;-75
2023/10/25 00:32:37;;;;;;;6.33;2.67;;;9.00;99.90;;;;;;5053015;28;20013;-75
2023/10/25 00:35:05;;;;;;;10.57;3.40;;;9.00;99.90;;;;;;5067648;28;20025;-75
2023/10/25 00:37:33;;;;;;;7.77;2.30;;;8.90;99.90;;;;;;5067664;28;21047;-75
2023/10/25 00:40:01;;;;;;;7.13;2.30;;;8.90;99.90;;;;;;5053196;28;20037;-75
2023/10/25 00:42:29;;;;;;;6.63;2.30;;;8.90;99.90;;;;;;5052416;28;20028;-75
2023/10/25 00:44:59;;;;;;;5.90;2.17;;;8.90;99.90;;;;;;5050987;28;20040;-75
2023/10/25 00:47:28;;;;;;;4.90;2.00;;;8.90;99.90;;;;;;5050224;28;20014;-77
2023/10/25 00:49:56;;;;;;;5.40;2.47;;;8.90;99.90;;;;;;5071783;28;20111;-75
2023/10/25 00:52:24;;;;;;;3.37;2.10;;;8.90;99.90;;;;;;5068051;28;20005;-74
2023/10/25 00:54:53;;;;;;;3.60;2.30;;;8.90;99.90;;;;;;5050261;28;20021;-75
2023/10/25 00:57:21;;;;;;;4.83;2.10;;;8.90;99.90;;;;;;5050366;28;20016;-75
2023/10/25 00:59:49;;;;;;;3.13;1.97;;;8.80;99.90;;;;;;5050556;28;20089;-76
2023/10/25 01:02:17;;;;;;;4.07;1.70;;;8.80;99.90;;;;;;5067657;28;20029;-75
2023/10/25 01:04:43;;;;;;;9.90;2.07;;;8.90;99.90;;;;;;5057975;28;20029;-75
2023/10/25 01:07:12;;;;;;;8.27;2.40;;;8.90;99.90;;;;;;5068375;28;20065;-76
2023/10/25 01:09:37;;;;;;;11.07;2.90;;;8.90;99.90;;;;;;5052632;28;20052;-75
2023/10/25 01:12:13;;;;;;;7.57;2.10;;;8.90;99.90;;;;;;5047422;28;20013;-75
2023/10/25 01:14:39;;;;;;;5.17;2.20;;;8.90;99.90;;;;;;5049974;28;20024;-75
2023/10/25 01:17:06;;;;;;;6.23;3.77;;;8.80;99.90;;;;;;5051094;28;20021;-76
2023/10/25 01:19:32;;;;;;;5.20;2.10;;;8.90;99.90;;;;;;5048575;28;20026;-76
2023/10/25 01:21:59;;;;;;;15.60;2.27;;;8.90;99.90;;;;;;5048098;28;20132;-75
2023/10/25 01:24:24;;;;;;;11.67;1.90;;;8.80;99.90;;;;;;5048919;28;20043;-75
2023/10/25 01:26:55;;;;;;;4.47;2.13;;;9.00;99.90;;;;;;5067848;28;20037;-76
2023/10/25 01:29:21;;;;;;;9.63;2.33;;;8.90;99.90;;;;;;5051548;28;20024;-75
2023/10/25 01:31:51;;;;;;;7.20;2.67;;;8.90;99.90;;;;;;5048236;28;20014;-75
2023/10/25 01:34:18;;;;;;;8.70;2.23;;;8.90;99.90;;;;;;5050533;28;20056;-75
2023/10/25 01:36:44;;;;;;;7.43;2.67;;;8.90;99.90;;;;;;5067361;28;20068;-75
2023/10/25 01:39:12;;;;;;;10.73;2.27;;;8.80;99.90;;;;;;5067970;28;20029;-75
2023/10/25 01:41:38;;;;;;;6.10;1.77;;;8.90;99.90;;;;;;5051752;28;20029;-75
2023/10/25 01:44:11;;;;;;;3.40;2.27;;;8.80;99.90;;;;;;5066195;28;20032;-74
2023/10/25 01:46:38;;;;;;;4.33;2.37;;;9.00;99.90;;;;;;5043875;28;20063;-75
2023/10/25 01:49:04;;;;;;;9.93;2.63;;;8.90;99.90;;;;;;5033621;28;20053;-75
2023/10/25 01:51:40;;;;;;;8.77;2.57;;;8.80;99.90;;;;;;5030206;28;20026;-75
2023/10/25 01:54:06;;;;;;;6.47;2.53;;;8.90;99.90;;;;;;5029679;28;20037;-75
2023/10/25 01:56:49;;;;;;;6.00;2.17;;;8.90;99.90;;;;;;5031298;28;20020;-75
2023/10/25 01:59:15;;;;;;;6.27;2.23;;;8.90;99.90;;;;;;5029288;28;20014;-76
2023/10/25 02:01:40;;;;;;;6.60;3.37;;;8.70;99.90;;;;;;5029039;28;20064;-75
2023/10/25 02:04:07;;;;;;;9.37;2.60;;;8.80;99.90;;;;;;5029993;28;20060;-75
2023/10/25 02:06:34;;;;;;;8.83;2.87;;;8.70;99.90;;;;;;5029501;28;20029;-75
2023/10/25 02:08:59;;;;;;;8.27;3.03;;;8.80;99.90;;;;;;5046220;28;20018;-75
2023/10/25 02:11:27;;;;;;;9.30;3.33;;;8.70;99.90;;;;;;5029375;28;20028;-75
2023/10/25 02:13:53;;;;;;;9.10;3.00;;;8.70;99.90;;;;;;5029340;28;20013;-75
2023/10/25 02:16:19;;;;;;;8.30;3.53;;;8.90;99.90;;;;;;5047108;28;20060;-75
2023/10/25 02:18:44;;;;;;;11.10;3.70;;;8.70;99.90;;;;;;5030254;28;20406;-75
2023/10/25 02:21:10;;;;;;;9.47;3.27;;;8.70;99.90;;;;;;5048385;28;20065;-75
2023/10/25 02:23:38;;;;;;;10.77;3.27;;;8.70;99.90;;;;;;5030749;28;20045;-76
2023/10/25 02:26:04;;;;;;;6.33;3.20;;;8.50;99.90;;;;;;5026526;28;20045;-75
2023/10/25 02:28:32;;;;;;;9.17;3.90;;;8.60;99.90;;;;;;5029424;28;20049;-75
2023/10/25 02:31:03;;;;;;;11.20;4.60;;;8.70;99.90;;;;;;5030153;28;20010;-75
2023/10/25 02:33:31;;;;;;;7.20;4.00;;;8.50;99.90;;;;;;5044358;28;20022;-76
2023/10/25 02:36:02;;;;;;;6.73;3.63;;;8.60;99.90;;;;;;5029015;28;20176;-74
2023/10/25 02:38:32;;;;;;;8.93;3.60;;;8.60;99.90;;;;;;5029959;28;20124;-75
2023/10/25 02:41:01;;;;;;;7.87;4.33;;;8.60;99.90;;;;;;5032134;28;20029;-75
2023/10/25 02:43:30;;;;;;;9.80;5.07;;;8.60;99.90;;;;;;5030312;28;20147;-75
2023/10/25 02:46:08;;;;;;;9.33;4.50;;;8.40;99.90;;;;;;5030863;28;20129;-75
2023/10/25 02:48:37;;;;;;;14.23;4.03;;;8.60;99.90;;;;;;5030464;28;20045;-76
2023/10/25 02:51:04;;;;;;;11.37;4.20;;;8.60;99.90;;;;;;5048865;28;20026;-75
2023/10/25 02:53:30;;;;;;;11.03;5.17;;;8.60;99.90;;;;;;5047676;28;20036;-75
2023/10/25 02:56:00;;;;;;;10.00;4.60;;;8.50;99.90;;;;;;5049307;28;20026;-75
2023/10/25 02:58:29;;;;;;;9.17;4.53;;;8.50;99.90;;;;;;5035838;28;20029;-76
2023/10/25 03:00:56;;;;;;;9.47;5.40;;;8.50;99.90;;;;;;5040497;28;20056;-75
2023/10/25 03:03:23;;;;;;;6.70;4.60;;;8.50;99.90;;;;;;5030586;28;20021;-75
2023/10/25 03:05:49;;;;;;;8.63;4.23;;;8.50;99.90;;;;;;5034505;28;20248;-76
2023/10/25 03:08:14;;;;;;;8.50;4.53;;;8.50;99.90;;;;;;5031473;28;20018;-75
2023/10/25 03:10:43;;;;;;;9.37;4.67;;;8.50;99.90;;;;;;5033950;28;20036;-77
2023/10/25 03:13:11;;;;;;;13.40;4.63;;;8.40;99.90;;;;;;5033066;28;20057;-76
2023/10/25 03:15:40;;;;;;;7.13;4.50;;;8.40;99.90;;;;;;5047348;28;20022;-76
2023/10/25 03:18:07;;;;;;;9.00;4.73;;;8.40;99.90;;;;;;5044768;28;20021;-74
2023/10/25 03:20:37;;;;;;;8.97;4.80;;;8.40;99.90;;;;;;5033753;28;20097;-76
2023/10/25 03:23:05;;;;;;;15.10;5.20;;;8.40;99.90;;;;;;5034989;28;20010;-77
2023/10/25 03:25:33;;;;;;;12.57;5.27;;;8.50;99.90;;;;;;5033266;28;20049;-74
2023/10/25 03:28:04;;;;;;;15.60;6.07;;;8.30;99.90;;;;;;5047036;28;20009;-75
2023/10/25 03:30:29;;;;;;;7.27;5.67;;;8.30;99.90;;;;;;5032154;28;20017;-75
2023/10/25 03:32:58;;;;;;;9.20;5.13;;;8.40;99.90;;;;;;5030920;28;20060;-76
2023/10/25 03:35:29;;;;;;;8.83;5.17;;;8.40;99.90;;;;;;5043751;28;20072;-75
2023/10/25 03:37:57;;;;;;;8.57;5.07;;;8.30;99.90;;;;;;5030782;28;20030;-76
2023/10/25 03:40:23;;;;;;;8.30;5.40;;;8.30;99.90;;;;;;5032471;28;20022;-75
2023/10/25 03:42:50;;;;;;;13.17;5.03;;;8.30;99.90;;;;;;5035852;28;20033;-75
2023/10/25 03:45:19;;;;;;;8.73;5.10;;;8.20;99.90;;;;;;5032438;28;20056;-76
2023/10/25 03:47:52;;;;;;;13.47;6.40;;;8.20;99.90;;;;;;5032813;28;20222;-75
2023/10/25 03:50:21;;;;;;;7.57;5.30;;;8.30;99.90;;;;;;5048607;28;20060;-76
2023/10/25 03:52:46;;;;;;;7.27;5.10;;;8.30;99.90;;;;;;5049483;28;20018;-75
2023/10/25 03:55:15;;;;;;;10.67;5.13;;;8.10;99.90;;;;;;5050344;28;20037;-75
2023/10/25 03:57:41;;;;;;;14.10;6.47;;;8.20;99.90;;;;;;5035569;28;20030;-75
2023/10/25 04:00:09;;;;;;;10.73;5.83;;;8.10;99.90;;;;;;5047928;28;20033;-75
2023/10/25 04:02:43;;;;;;;10.70;5.83;;;8.30;99.90;;;;;;5030467;28;20045;-75
2023/10/25 04:05:09;;;;;;;8.40;5.40;;;8.20;99.90;;;;;;5030728;28;20060;-75
2023/10/25 04:07:41;;;;;;;11.73;6.07;;;8.20;99.90;;;;;;5030918;28;20017;-75
2023/10/25 04:10:11;;;;;;;12.60;6.10;;;8.20;99.90;;;;;;5031153;28;20017;-75
2023/10/25 04:12:39;;;;;;;9.37;5.50;;;8.20;99.90;;;;;;5046746;28;20073;-75
2023/10/25 04:15:05;;;;;;;13.20;5.57;;;8.10;99.90;;;;;;5033426;28;20033;-75
2023/10/25 04:17:36;;;;;;;8.77;5.43;;;8.20;99.90;;;;;;5034714;28;20010;-75
2023/10/25 04:20:02;;;;;;;13.23;6.53;;;8.30;99.90;;;;;;5032654;28;20034;-75
2023/10/25 04:22:28;;;;;;;8.57;6.20;;;8.20;99.90;;;;;;5049557;28;20041;-75
2023/10/25 04:24:53;;;;;;;11.97;6.20;;;8.20;99.90;;;;;;5030326;28;20061;-75
2023/10/25 04:27:21;;;;;;;14.50;6.90;;;8.20;99.90;;;;;;5033144;28;20034;-75
2023/10/25 04:29:47;;;;;;;9.70;6.20;;;8.20;99.90;;;;;;5031966;28;20037;-75
2023/10/25 04:32:12;;;;;;;13.37;6.70;;;8.30;99.90;;;;;;5030662;28;20014;-76
2023/10/25 04:34:38;;;;;;;12.13;6.97;;;8.30;99.90;;;;;;5033361;28;20017;-75
2023/10/25 04:37:04;;;;;;;11.73;7.17;;;8.30;99.90;;;;;;5031641;28;20031;-75
2023/10/25 04:39:29;;;;;;;11.93;7.10;;;8.30;99.90;;;;;;5035701;28;20119;-75
2023/10/25 04:41:55;;;;;;;11.77;7.10;;;8.30;99.90;;;;;;5031883;28;20014;-75
2023/10/25 04:44:20;;;;;;;10.10;6.60;;;8.30;99.90;;;;;;5042405;28;20049;-75
2023/10/25 04:46:46;;;;;;;19.23;7.03;;;8.30;99.90;;;;;;5044526;28;20010;-75
2023/10/25 04:49:11;;;;;;;12.83;7.07;;;8.30;99.90;;;;;;5058714;28;20037;-75
2023/10/25 04:51:37;;;;;;;12.83;7.27;;;8.30;99.90;;;;;;5058664;28;20032;-75
2023/10/25 04:54:03;;;;;;;13.83;8.03;;;8.30;99.90;;;;;;5034253;28;20017;-76
2023/10/25 04:56:28;;;;;;;10.93;7.13;;;8.30;99.90;;;;;;5037642;28;20024;-75
2023/10/25 04:58:54;;;;;;;15.60;8.57;;;8.30;99.90;;;;;;5041578;28;20043;-75
2023/10/25 05:01:20;;;;;;;16.30;7.63;;;8.30;99.90;;;;;;5034364;28;20025;-75
2023/10/25 05:03:45;;;;;;;14.23;7.30;;;8.30;99.90;;;;;;5054056;28;20036;-75
2023/10/25 05:06:12;;;;;;;11.33;7.80;;;8.30;99.90;;;;;;5036080;28;20022;-76
2023/10/25 05:08:38;;;;;;;11.23;7.63;;;8.30;99.90;;;;;;5050277;28;20018;-75
2023/10/25 05:11:05;;;;;;;14.40;7.80;;;8.30;99.90;;;;;;5054530;28;20028;-75
2023/10/25 05:13:32;;;;;;;12.70;7.83;;;8.30;99.90;;;;;;5056437;28;20017;-75
2023/10/25 05:15:58;;;;;;;12.63;7.83;;;8.30;99.90;;;;;;5027450;28;20010;-76
2023/10/25 05:18:24;;;;;;;15.70;8.27;;;8.30;99.90;;;;;;5040899;28;20021;-76
2023/10/25 05:20:59;;;;;;;13.87;9.23;;;8.30;99.90;;;;;;5041322;28;20010;-75
2023/10/25 05:23:31;;;;;;;17.13;7.60;;;8.20;99.90;;;;;;5041202;28;20036;-75
2023/10/25 05:26:02;;;;;;;16.35;9.10;;;8.20;99.90;;;;;;5072103;28;20051;-75
2023/10/25 05:28:32;;;;;;;14.77;8.20;;;8.20;99.90;;;;;;5039082;28;20021;-74
2023/10/25 05:31:02;;;;;;;13.27;7.87;;;8.20;99.90;;;;;;5040926;28;20040;-75
2023/10/25 05:33:31;;;;;;;15.10;7.77;;;8.20;99.90;;;;;;5044418;28;20013;-75
2023/10/25 05:36:00;;;;;;;16.10;8.83;;;8.20;99.90;;;;;;5041007;28;20017;-77
2023/10/25 05:38:29;;;;;;;17.67;9.37;;;8.20;99.90;;;;;;5040349;28;20017;-75
2023/10/25 05:40:55;;;;;;;24.00;9.80;;;8.20;99.90;;;;;;5051818;28;20037;-77
2023/10/25 05:43:28;;;;;;;19.67;9.33;;;8.20;99.90;;;;;;5042798;28;20051;-74
2023/10/25 05:45:54;;;;;;;16.07;8.90;;;8.20;99.90;;;;;;5040540;28;20033;-76
2023/10/25 05:48:20;;;;;;;15.47;8.60;;;8.20;99.90;;;;;;5038646;28;20129;-77
2023/10/25 05:50:49;;;;;;;16.73;8.87;;;8.20;99.90;;;;;;5033536;28;20024;-75
2023/10/25 05:53:18;;;;;;;17.87;8.67;;;8.20;99.90;;;;;;5035823;28;20017;-75
2023/10/25 05:55:45;;;;;;;11.70;7.97;;;8.20;99.90;;;;;;5040385;28;20028;-75
2023/10/25 05:58:10;;;;;;;14.70;7.73;;;8.20;99.90;;;;;;5040522;28;20036;-74
2023/10/25 06:00:48;;;;;;;14.73;7.80;;;8.30;99.90;;;;;;5040687;28;20018;-76
2023/10/25 06:03:18;;;;;;;16.67;7.53;;;8.30;99.90;;;;;;5031581;28;20045;-74
2023/10/25 06:05:53;;;;;;;13.97;8.03;;;8.30;99.90;;;;;;5035774;28;20024;-74
2023/10/25 06:08:19;;;;;;;14.47;7.20;;;8.30;99.90;;;;;;5038043;28;20013;-76
2023/10/25 06:10:45;;;;;;;15.03;8.10;;;8.30;99.90;;;;;;5036073;28;20033;-74
2023/10/25 06:13:11;;;;;;;13.70;7.20;;;8.30;99.90;;;;;;5040034;28;20084;-74
2023/10/25 06:15:37;;;;;;;13.77;8.27;;;8.40;99.90;;;;;;5057533;28;20013;-77
2023/10/25 06:18:07;;;;;;;19.10;7.60;;;8.40;99.90;;;;;;5038852;28;20009;-75
2023/10/25 06:20:38;;;;;;;14.93;7.03;;;8.40;99.90;;;;;;5023381;28;20049;-74
2023/10/25 06:23:03;;;;;;;16.33;8.63;;;8.40;99.90;;;;;;5050350;28;20145;-75
2023/10/25 06:25:30;;;;;;;11.67;6.40;;;8.40;99.90;;;;;;5034087;28;20045;-75
2023/10/25 06:27:57;;;;;;;21.93;7.97;;;8.50;99.90;;;;;;5034335;28;20101;-75
2023/10/25 06:30:26;;;;;;;12.97;6.20;;;8.50;99.90;;;;;;5033910;28;20033;-75
2023/10/25 06:32:52;;;;;;;15.23;6.27;;;8.50;99.90;;;;;;5035991;28;20031;-76
2023/10/25 06:35:20;;;;;;;16.40;6.63;;;8.50;99.90;;;;;;5034402;28;20009;-75
2023/10/25 06:37:48;;;;;;;10.90;6.43;;;8.60;99.90;;;;;;5049390;28;20052;-74
2023/10/25 06:40:14;;;;;;;12.30;6.87;;;8.50;99.90;;;;;;5032206;28;20041;-76
2023/10/25 06:42:40;;;;;;;12.97;6.53;;;8.60;99.90;;;;;;5036988;28;20014;-76
2023/10/25 06:45:13;;;;;;;11.17;6.93;;;8.60;99.90;;;;;;5034497;28;20046;-75
2023/10/25 06:47:42;;;;;;;24.83;10.60;;;8.50;99.90;;;;;;5033898;28;20009;-75
2023/10/25 06:50:11;;;;;;;14.53;8.30;;;8.60;99.90;;;;;;5038648;28;20039;-75
2023/10/25 06:52:37;;;;;;;9.23;6.57;;;8.60;99.90;;;;;;5050527;28;20442;-75
2023/10/25 06:55:03;;;;;;;14.07;6.23;;;8.70;99.90;;;;;;5034216;28;20040;-75
2023/10/25 06:57:30;;;;;;;17.90;10.70;;;8.60;99.90;;;;;;5032594;28;20045;-75
2023/10/25 06:59:55;;;;;;;15.10;8.40;;;8.70;99.90;;;;;;5033379;28;20036;-75
2023/10/25 07:02:49;;;;;;;22.43;7.23;;;8.70;99.90;;;;;;5034424;28;20029;-75
2023/10/25 07:05:16;;;;;;;16.07;6.67;;;8.70;99.90;;;;;;5032952;28;20036;-75
2023/10/25 07:07:45;;;;;;;20.40;7.40;;;8.80;99.90;;;;;;5049157;28;20048;-75
2023/10/25 07:10:11;;;;;;;7.77;4.80;;;8.80;99.90;;;;;;5031222;28;20042;-75
2023/10/25 07:12:38;;;;;;;42.93;20.40;;;8.80;99.90;;;;;;5049559;28;20020;-74
2023/10/25 07:15:06;;;;;;;33.87;17.87;;;8.80;99.90;;;;;;5049218;28;20029;-75
2023/10/25 07:17:34;;;;;;;12.37;7.13;;;8.90;99.90;;;;;;5049927;28;20061;-75
2023/10/25 07:20:00;;;;;;;15.70;7.30;;;8.90;99.90;;;;;;5030457;28;20021;-74
2023/10/25 07:22:27;;;;;;;15.83;9.60;;;9.00;99.90;;;;;;5029741;28;20052;-75
2023/10/25 07:24:53;;;;;;;14.07;6.77;;;9.00;99.90;;;;;;5031407;28;20037;-75
2023/10/25 07:27:21;;;;;;;12.40;6.77;;;9.10;99.90;;;;;;5032148;28;20021;-75
2023/10/25 07:29:48;;;;;;;8.17;4.07;;;9.10;99.90;;;;;;5032382;28;20025;-78
2023/10/25 07:32:16;;;;;;;10.73;3.90;;;9.10;99.90;;;;;;5031102;28;20056;-75
2023/10/25 07:34:42;;;;;;;7.70;4.17;;;9.20;99.90;;;;;;5048596;28;20033;-75
2023/10/25 07:37:09;;;;;;;29.50;16.83;;;9.20;99.90;;;;;;5029350;28;20034;-75
2023/10/25 07:39:35;;;;;;;8.93;4.73;;;9.30;99.90;;;;;;5033203;28;20041;-75
2023/10/25 07:42:01;;;;;;;9.43;4.77;;;9.30;99.90;;;;;;5031262;28;20026;-76
2023/10/25 07:44:28;;;;;;;7.40;3.90;;;9.30;99.90;;;;;;5030635;28;20033;-76
2023/10/25 07:46:53;;;;;;;28.30;14.63;;;9.30;99.90;;;;;;5032066;28;20061;-76
2023/10/25 07:49:19;;;;;;;6.67;3.80;;;9.40;99.90;;;;;;5033175;28;20037;-75
2023/10/25 07:51:44;;;;;;;8.00;3.43;;;9.40;99.90;;;;;;5030201;28;20018;-76
2023/10/25 07:54:12;;;;;;;18.30;9.90;;;9.50;99.90;;;;;;5031285;28;20048;-74
2023/10/25 07:56:38;;;;;;;14.70;7.27;;;9.50;99.90;;;;;;5031757;28;20090;-75
2023/10/25 07:59:04;;;;;;;5.80;2.60;;;9.60;99.90;;;;;;5033109;28;20029;-75
2023/10/25 08:01:32;;;;;;;10.03;3.23;;;9.60;99.90;;;;;;5030500;28;20013;-75
2023/10/25 08:03:57;;;;;;;8.53;2.00;;;9.70;99.90;;;;;;5031480;28;20018;-76
2023/10/25 08:06:23;;;;;;;6.83;2.60;;;9.70;99.90;;;;;;5031674;28;20081;-75
2023/10/25 08:08:49;;;;;;;4.87;2.40;;;9.80;99.90;;;;;;5031065;28;20216;-76
2023/10/25 08:11:17;;;;;;;6.17;2.60;;;9.90;99.90;;;;;;5028639;28;20029;-76
2023/10/25 08:13:48;;;;;;;6.80;2.23;;;9.90;99.90;;;;;;5032178;28;20034;-76
2023/10/25 08:16:14;;;;;;;6.77;1.80;;;10.00;99.90;;;;;;5046445;28;20033;-75
2023/10/25 08:18:42;;;;;;;6.53;2.20;;;10.00;99.90;;;;;;5031124;28;20025;-75
2023/10/25 08:21:16;;;;;;;9.10;2.17;;;10.10;99.90;;;;;;5049636;28;20024;-75
2023/10/25 08:23:45;;;;;;;4.77;2.23;;;10.20;99.90;;;;;;5032066;28;20034;-75
2023/10/25 08:26:11;;;;;;;5.00;2.17;;;10.20;99.90;;;;;;5030463;28;20038;-75
2023/10/25 08:28:36;;;;;;;4.93;1.57;;;10.20;99.90;;;;;;5033331;28;20040;-75
2023/10/25 08:31:13;;;;;;;4.23;2.30;;;10.40;99.90;;;;;;5031636;28;20025;-76
2023/10/25 08:33:38;;;;;;;7.73;4.10;;;10.30;99.90;;;;;;5031802;28;20010;-75
2023/10/25 08:36:05;;;;;;;5.90;2.30;;;10.30;99.90;;;;;;5031655;28;20044;-74
2023/10/25 08:38:30;;;;;;;4.30;1.50;;;10.40;99.90;;;;;;5029862;28;20260;-74
2023/10/25 08:41:06;;;;;;;7.30;1.30;;;10.40;99.90;;;;;;5030286;28;20049;-75
2023/10/25 08:43:33;;;;;;;3.67;1.90;;;10.40;99.90;;;;;;5030588;28;20045;-75
2023/10/25 08:46:05;;;;;;;5.23;1.63;;;10.40;99.90;;;;;;5028324;28;20022;-75
2023/10/25 08:48:34;;;;;;;5.90;1.98;;;10.40;99.90;;;;;;5046303;28;20034;-76
2023/10/25 08:51:00;;;;;;;11.10;2.23;;;10.40;99.90;;;;;;5030679;28;20032;-76
2023/10/25 08:53:26;;;;;;;10.57;2.43;;;10.40;99.90;;;;;;5049331;28;20053;-75
2023/10/25 08:55:54;;;;;;;6.13;2.23;;;10.50;99.90;;;;;;5041338;28;20014;-76
2023/10/25 08:58:25;;;;;;;6.20;1.90;;;10.40;99.90;;;;;;5029995;28;20032;-75
2023/10/25 09:00:52;;;;;;;8.60;2.13;;;10.40;99.90;;;;;;5048299;28;20029;-75
2023/10/25 09:03:30;;;;;;;7.23;1.93;;;10.40;99.90;;;;;;5047831;28;20232;-75
2023/10/25 09:05:58;;;;;;;5.07;1.60;;;10.40;99.90;;;;;;5031507;28;20033;-76
2023/10/25 09:08:24;;;;;;;8.07;2.30;;;10.40;99.90;;;;;;5029382;28;20058;-76
2023/10/25 09:11:01;;;;;;;5.33;1.63;;;10.30;99.90;;;;;;5028854;28;20026;-75
2023/10/25 09:13:28;;;;;;;3.30;1.90;;;10.30;99.90;;;;;;5045127;28;20025;-75
2023/10/25 09:16:09;;;;;;;5.17;2.10;;;10.30;99.90;;;;;;5044854;28;20161;-74
2023/10/25 09:18:36;;;;;;;5.80;2.27;;;10.30;99.90;;;;;;5043652;28;20067;-74
2023/10/25 09:21:06;;;;;;;6.53;2.40;;;10.30;99.90;;;;;;5030331;28;20018;-75
2023/10/25 09:23:35;;;;;;;4.33;1.47;;;10.30;99.90;;;;;;5034498;28;20022;-75
2023/10/25 09:26:04;;;;;;;4.57;1.87;;;10.40;99.90;;;;;;5048117;28;20051;-75
2023/10/25 09:28:31;;;;;;;3.20;1.43;;;10.40;99.90;;;;;;5030409;28;20021;-74
2023/10/25 09:30:59;;;;;;;5.00;2.10;;;10.40;99.90;;;;;;5029803;28;20025;-74
2023/10/25 09:33:28;;;;;;;6.20;1.73;;;10.50;99.90;;;;;;5045996;28;20040;-75
2023/10/25 09:35:54;;;;;;;5.00;2.00;;;10.40;99.90;;;;;;5047309;28;20014;-74
2023/10/25 09:38:20;;;;;;;2.97;1.53;;;10.50;99.90;;;;;;5027085;28;20022;-74
2023/10/25 09:40:49;;;;;;;3.90;1.50;;;10.50;99.90;;;;;;5026298;28;20285;-74
2023/10/25 09:43:24;;;;;;;9.03;1.90;;;10.50;99.90;;;;;;5029388;28;20020;-74
2023/10/25 09:45:56;;;;;;;7.20;1.50;;;10.50;99.90;;;;;;5033195;28;20040;-75
2023/10/25 09:48:22;;;;;;;2.72;1.58;;;10.50;99.90;;;;;;5027765;28;20320;-75
2023/10/25 09:51:02;;;;;;;2.70;1.70;;;10.50;99.90;;;;;;5028747;28;20022;-75
2023/10/25 09:53:39;;;;;;;3.70;1.70;;;10.50;99.90;;;;;;5032396;28;20056;-75
2023/10/25 09:56:08;;;;;;;3.67;1.40;;;10.60;99.90;;;;;;5044551;28;20037;-74
2023/10/25 09:58:35;;;;;;;7.17;2.17;;;10.60;99.90;;;;;;5030872;28;20040;-75
2023/10/25 10:01:03;;;;;;;10.00;2.53;;;10.70;99.90;;;;;;5030907;28;20048;-75
2023/10/25 10:03:47;;;;;;;4.83;1.60;;;10.70;99.90;;;;;;5048426;28;20080;-75
2023/10/25 10:06:26;;;;;;;3.87;1.83;;;10.70;99.90;;;;;;5029290;28;20021;-75
2023/10/25 10:09:20;;;;;;;5.63;2.53;;;10.80;99.90;;;;;;5031726;28;20041;-74
2023/10/25 10:11:55;;;;;;;4.43;2.20;;;10.80;99.90;;;;;;5034663;28;20022;-75
2023/10/25 10:14:31;;;;;;;7.70;3.30;;;10.80;99.90;;;;;;5034419;28;20040;-75
2023/10/25 10:17:10;;;;;;;10.23;3.40;;;10.80;99.90;;;;;;5029096;28;20083;-75
2023/10/25 10:19:44;;;;;;;8.20;3.17;;;10.80;99.90;;;;;;5029772;28;20024;-75
2023/10/25 10:22:13;;;;;;;4.70;2.50;;;10.80;99.90;;;;;;5028011;28;20018;-75
2023/10/25 10:24:49;;;;;;;9.67;3.53;;;10.80;99.90;;;;;;5048359;28;20026;-75
2023/10/25 10:27:19;;;;;;;7.13;3.67;;;10.70;99.90;;;;;;5029778;28;20036;-75
2023/10/25 10:29:49;;;;;;;5.63;3.47;;;10.70;99.90;;;;;;5045219;28;20044;-74
2023/10/25 10:32:15;;;;;;;9.50;4.03;;;10.70;99.90;;;;;;5045082;28;20014;-74
2023/10/25 10:34:48;;;;;;;9.63;4.00;;;10.70;99.90;;;;;;5028923;28;20040;-74
2023/10/25 10:37:13;;;;;;;;;;;10.60;99.90;;;;;;5029892;28;20048;-75
2023/10/25 10:39:57;;;;;;;19.63;8.07;;;10.60;99.90;;;;;;5047140;28;19960;-75
2023/10/25 10:42:38;;;;;;;6.00;3.73;;;10.50;99.90;;;;;;5030784;28;20028;-74
2023/10/25 10:45:07;;;;;;;7.20;4.73;;;10.50;99.90;;;;;;5043771;28;20056;-74
2023/10/25 10:47:37;;;;;;;7.80;5.03;;;10.50;99.90;;;;;;5056471;28;20021;-76
2023/10/25 10:50:10;;;;;;;6.93;4.13;;;10.40;99.90;;;;;;5034834;28;20014;-75
2023/10/25 10:52:35;;;;;;;16.77;6.13;;;10.40;99.90;;;;;;5029390;28;20081;-75
2023/10/25 10:55:03;;;;;;;12.13;6.17;;;10.40;99.90;;;;;;5039941;28;20025;-75
2023/10/25 10:57:30;;;;;;;13.67;6.40;;;10.40;99.90;;;;;;5039665;28;20014;-75
2023/10/25 10:59:56;;;;;;;14.03;6.37;;;10.40;99.90;;;;;;5040491;28;20029;-76
2023/10/25 11:02:22;;;;;;;12.13;6.77;;;10.30;99.90;;;;;;5040078;28;20018;-75
2023/10/25 11:04:47;;;;;;;8.97;6.07;;;10.40;99.90;;;;;;5040013;28;20029;-75
2023/10/25 11:07:15;;;;;;;14.87;7.13;;;10.40;99.90;;;;;;5040254;28;20013;-76
2023/10/25 11:09:45;;;;;;;12.33;7.50;;;10.30;99.90;;;;;;5053894;28;20033;-75
2023/10/25 11:12:16;;;;;;;11.20;7.70;;;10.40;99.90;;;;;;5049409;28;20088;-75
2023/10/25 11:14:47;;;;;;;14.67;10.93;;;10.30;99.90;;;;;;5036765;28;20025;-75
2023/10/25 11:17:16;;;;;;;17.07;8.40;;;10.30;99.90;;;;;;5048577;28;20034;-75
2023/10/25 11:19:47;;;;;;;14.10;9.97;;;10.30;99.90;;;;;;5042071;28;20017;-74
2023/10/25 11:22:14;;;;;;;18.03;10.23;;;10.30;99.90;;;;;;5042503;28;20036;-75
2023/10/25 11:24:40;;;;;;;14.73;9.70;;;10.40;99.90;;;;;;5060437;28;20031;-74
2023/10/25 11:27:08;;;;;;;13.97;9.23;;;10.30;99.90;;;;;;5043136;28;20014;-75
2023/10/25 11:29:39;;;;;;;14.73;8.73;;;10.30;99.90;;;;;;5042583;28;20037;-75
2023/10/25 11:32:14;;;;;;;12.93;8.53;;;10.30;99.90;;;;;;5060538;28;20070;-74
2023/10/25 11:34:45;;;;;;;19.27;10.53;;;10.30;99.90;;;;;;5040852;28;20018;-74
2023/10/25 11:37:15;;;;;;;19.03;9.83;;;10.30;99.90;;;;;;5060255;28;20020;-74
2023/10/25 11:40:01;;;;;;;13.67;8.63;;;10.30;99.90;;;;;;5043121;28;20025;-74
2023/10/25 11:42:31;;;;;;;16.27;10.20;;;10.30;99.90;;;;;;5042463;28;20018;-74
2023/10/25 11:45:02;;;;;;;12.73;8.73;;;10.30;99.90;;;;;;5050281;28;20036;-74
2023/10/25 11:47:28;;;;;;;19.90;10.37;;;10.30;99.90;;;;;;5060216;28;20014;-74
2023/10/25 11:49:58;;;;;;;14.33;9.43;;;10.30;99.90;;;;;;5040488;28;20017;-74
2023/10/25 11:52:28;;;;;;;13.83;9.27;;;10.30;99.90;;;;;;5042853;28;20009;-74
2023/10/25 11:54:55;;;;;;;15.90;9.20;;;10.40;99.90;;;;;;5077670;28;20009;-74
2023/10/25 11:57:25;;;;;;;16.07;9.03;;;10.30;99.90;;;;;;5040294;28;20086;-74
2023/10/25 11:59:56;;;;;;;16.40;10.03;;;10.40;99.90;;;;;;5049245;28;20041;-74
2023/10/25 12:02:28;;;;;;;17.23;9.20;;;10.40;99.90;;;;;;5042564;28;20021;-74
2023/10/25 12:04:59;;;;;;;20.73;10.02;;;10.40;99.90;;;;;;5033802;28;20030;-74
2023/10/25 12:07:25;;;;;;;14.37;9.40;;;10.40;99.90;;;;;;5035177;28;20009;-74
2023/10/25 12:09:54;;;;;;;12.27;8.60;;;10.40;99.90;;;;;;5042412;28;20105;-75
2023/10/25 12:12:20;;;;;;;14.27;8.07;;;10.40;99.90;;;;;;5038999;28;20102;-74
2023/10/25 12:14:46;;;;;;;14.80;7.87;;;10.40;99.90;;;;;;5029922;28;20028;-75
2023/10/25 12:17:12;;;;;;;15.73;8.17;;;10.50;99.90;;;;;;5041394;28;20024;-75
2023/10/25 12:19:42;;;;;;;13.17;7.97;;;10.60;99.90;;;;;;5033081;28;20013;-74
2023/10/25 12:22:12;;;;;;;13.27;8.37;;;10.50;99.90;;;;;;5041297;28;20018;-74
2023/10/25 12:24:39;;;;;;;22.93;7.90;;;10.60;99.90;;;;;;5031925;28;20021;-75
2023/10/25 12:27:07;;;;;;;12.17;7.30;;;10.60;99.90;;;;;;5032112;28;20018;-75
2023/10/25 12:29:36;;;;;;;11.67;6.83;;;10.60;99.90;;;;;;5045519;28;20080;-75
2023/10/25 12:32:05;;;;;;;9.73;6.40;;;10.60;99.90;;;;;;5048175;28;20025;-75
2023/10/25 12:34:31;;;;;;;10.60;6.07;;;10.60;99.90;;;;;;5033672;28;20029;-74
2023/10/25 12:36:57;;;;;;;11.97;6.60;;;10.60;99.90;;;;;;5049243;28;20073;-74
2023/10/25 12:39:26;;;;;;;12.63;6.67;;;10.60;99.90;;;;;;5033376;28;20072;-75
2023/10/25 12:41:52;;;;;;;10.77;6.70;;;10.60;99.90;;;;;;5030111;28;20073;-75
2023/10/25 12:44:17;;;;;;;10.57;6.63;;;10.60;99.90;;;;;;5031242;28;20033;-75
2023/10/25 12:46:44;;;;;;;16.77;9.07;;;10.60;99.90;;;;;;5032140;28;20037;-74
2023/10/25 12:49:16;;;;;;;14.40;9.00;;;10.60;99.90;;;;;;5030676;28;20034;-74
2023/10/25 12:51:42;;;;;;;12.70;6.80;;;10.60;99.90;;;;;;5029587;28;20017;-75
2023/10/25 12:54:08;;;;;;;10.40;7.27;;;10.70;99.90;;;;;;5032403;28;20052;-74